Time;durP1;ratioP1;P1;durP2;ratioP2;P2;SDS_P1;SDS_P2;PMS_P1;PMS_P2;Temp;Humidity;BMP_temperature;BMP_pressure;BME280_temperature;BME280_humidity;BME280_pressure;Samples;Min_cycle;Max_cycle;Signal;HPM_P1;HPM_P2
2023/11/28 00:01:15;;;;;;;3.90;1.52;;;0.70;99.90;;;;;;4942819;29;20049;-86
2023/11/28 00:03:43;;;;;;;4.25;1.27;;;0.70;99.90;;;;;;4916363;29;20056;-86
2023/11/28 00:06:17;;;;;;;3.42;1.50;;;0.70;99.90;;;;;;4930326;29;20051;-86
2023/11/28 00:08:45;;;;;;;2.45;1.33;;;0.60;99.90;;;;;;4924487;29;20063;-85
2023/11/28 00:11:17;;;;;;;3.13;1.30;;;0.60;99.90;;;;;;4917343;29;20036;-86
2023/11/28 00:13:44;;;;;;;2.60;1.33;;;0.70;99.90;;;;;;4914703;29;20048;-86
2023/11/28 00:16:12;;;;;;;2.65;1.17;;;0.70;99.90;;;;;;4930200;29;20047;-86
2023/11/28 00:18:39;;;;;;;2.47;1.10;;;0.70;99.90;;;;;;4949406;29;20095;-86
2023/11/28 00:21:06;;;;;;;2.65;1.00;;;0.70;99.90;;;;;;4929539;29;20049;-86
2023/11/28 00:23:32;;;;;;;2.25;1.05;;;0.70;99.90;;;;;;4918271;29;20036;-86
2023/11/28 00:25:59;;;;;;;2.38;1.10;;;0.90;99.90;;;;;;4951057;29;20057;-86
2023/11/28 00:28:26;;;;;;;1.58;0.90;;;0.70;99.90;;;;;;4925750;29;20128;-86
2023/11/28 00:30:53;;;;;;;2.83;1.00;;;0.60;99.90;;;;;;4910452;29;20092;-86
2023/11/28 00:33:20;;;;;;;4.10;0.93;;;1.90;99.90;;;;;;4918328;29;20383;-85
2023/11/28 00:35:46;;;;;;;2.70;0.90;;;0.70;99.90;;;;;;4918337;29;20056;-86
2023/11/28 00:38:13;;;;;;;2.13;1.17;;;0.70;99.90;;;;;;4937211;29;20048;-85
2023/11/28 00:40:40;;;;;;;3.30;1.00;;;0.60;99.90;;;;;;4924531;29;20048;-85
2023/11/28 00:43:08;;;;;;;2.33;1.10;;;0.70;99.90;;;;;;4923652;29;20037;-85
2023/11/28 00:45:35;;;;;;;2.08;1.02;;;0.60;99.90;;;;;;4927720;29;20097;-86
2023/11/28 00:48:02;;;;;;;2.10;0.93;;;0.70;99.90;;;;;;4923427;29;20041;-86
2023/11/28 00:50:29;;;;;;;2.88;1.25;;;0.60;99.90;;;;;;4917997;29;20515;-85
2023/11/28 00:52:55;;;;;;;3.03;1.13;;;0.60;99.90;;;;;;4933682;29;20056;-85
2023/11/28 00:55:23;;;;;;;2.25;1.10;;;0.60;99.90;;;;;;4925736;29;20044;-85
2023/11/28 00:57:50;;;;;;;2.75;1.30;;;0.60;99.90;;;;;;4924026;29;20044;-85
2023/11/28 01:00:17;;;;;;;3.25;1.40;;;1.70;99.90;;;;;;4950400;29;20048;-85
2023/11/28 01:02:44;;;;;;;4.68;1.70;;;0.60;99.90;;;;;;4922160;29;20075;-86
2023/11/28 01:05:11;;;;;;;3.13;1.40;;;0.60;99.90;;;;;;4929123;29;20048;-85
2023/11/28 01:07:38;;;;;;;4.50;1.50;;;1.00;99.90;;;;;;4917618;29;20063;-85
2023/11/28 01:10:05;;;;;;;2.60;1.38;;;0.70;99.90;;;;;;4941132;29;20044;-85
2023/11/28 01:12:32;;;;;;;5.68;1.60;;;0.60;99.90;;;;;;4921629;29;20044;-85
2023/11/28 01:14:58;;;;;;;3.67;1.50;;;0.70;99.90;;;;;;4917146;29;20123;-86
2023/11/28 01:17:25;;;;;;;5.07;1.50;;;0.70;99.90;;;;;;4932751;29;20177;-85
2023/11/28 01:19:52;;;;;;;4.70;1.60;;;0.70;99.90;;;;;;4911104;29;20045;-85
2023/11/28 01:22:18;;;;;;;2.80;1.40;;;0.70;99.90;;;;;;4928637;29;20068;-86
2023/11/28 01:24:45;;;;;;;5.57;1.70;;;0.70;99.90;;;;;;4928834;29;20044;-86
2023/11/28 01:27:11;;;;;;;4.43;1.67;;;0.70;99.90;;;;;;4917304;29;20844;-85
2023/11/28 01:29:38;;;;;;;3.70;1.60;;;0.70;99.90;;;;;;4925159;29;20044;-85
2023/11/28 01:32:05;;;;;;;4.72;1.45;;;0.70;99.90;;;;;;4930834;29;20051;-86
2023/11/28 01:34:32;;;;;;;4.78;1.42;;;0.80;99.90;;;;;;4924381;29;20132;-85
2023/11/28 01:36:58;;;;;;;2.92;1.10;;;1.30;99.90;;;;;;4923716;29;20048;-85
2023/11/28 01:39:25;;;;;;;2.88;1.35;;;0.80;99.90;;;;;;4949551;29;20086;-86
2023/11/28 01:41:51;;;;;;;2.55;1.25;;;0.80;99.90;;;;;;4920575;29;20087;-86
2023/11/28 01:44:18;;;;;;;2.78;1.23;;;1.60;99.90;;;;;;4917415;29;20092;-86
2023/11/28 01:46:45;;;;;;;2.92;1.35;;;0.80;99.90;;;;;;4932269;29;20037;-86
2023/11/28 01:49:12;;;;;;;2.97;1.33;;;0.80;99.90;;;;;;4932306;29;20041;-86
2023/11/28 01:51:39;;;;;;;2.70;1.40;;;0.80;99.90;;;;;;4920077;29;20048;-86
2023/11/28 01:54:07;;;;;;;3.25;1.25;;;0.80;99.90;;;;;;4916665;29;20450;-86
2023/11/28 01:56:35;;;;;;;5.38;1.75;;;0.70;99.90;;;;;;4916651;29;20052;-85
2023/11/28 01:59:04;;;;;;;3.63;1.15;;;0.80;99.90;;;;;;4945189;29;20490;-85
2023/11/28 02:01:31;;;;;;;3.00;1.40;;;0.80;99.90;;;;;;4928534;29;20088;-85
2023/11/28 02:03:58;;;;;;;3.05;1.25;;;1.60;99.90;;;;;;4927253;29;20494;-86
2023/11/28 02:06:25;;;;;;;2.88;1.48;;;0.80;99.90;;;;;;4918764;29;20056;-86
2023/11/28 02:08:51;;;;;;;5.53;1.52;;;0.90;99.90;;;;;;4942936;29;20044;-85
2023/11/28 02:11:18;;;;;;;2.65;1.25;;;0.90;99.90;;;;;;4918132;29;20151;-85
2023/11/28 02:13:45;;;;;;;3.47;1.40;;;0.90;99.90;;;;;;4939483;29;20071;-85
2023/11/28 02:16:14;;;;;;;2.90;1.40;;;0.90;99.90;;;;;;4944902;29;20064;-85
2023/11/28 02:18:42;;;;;;;3.50;1.58;;;0.90;99.90;;;;;;4931927;29;20409;-85
2023/11/28 02:21:13;;;;;;;2.90;1.40;;;0.90;99.90;;;;;;4928862;29;20434;-85
2023/11/28 02:23:40;;;;;;;3.85;1.83;;;1.20;99.90;;;;;;4915892;29;20041;-85
2023/11/28 02:26:23;;;;;;;2.97;1.33;;;0.90;99.90;;;;;;4933999;29;20498;-85
2023/11/28 02:28:50;;;;;;;4.53;1.58;;;0.90;99.90;;;;;;4933416;29;20071;-85
2023/11/28 02:31:17;;;;;;;4.35;1.45;;;1.00;99.90;;;;;;4904805;29;20045;-85
2023/11/28 02:33:45;;;;;;;4.53;1.55;;;1.00;99.90;;;;;;4925656;29;20051;-85
2023/11/28 02:36:12;;;;;;;4.50;1.85;;;1.00;99.90;;;;;;4921979;29;20048;-85
2023/11/28 02:38:38;;;;;;;4.45;1.77;;;1.00;99.90;;;;;;4946822;29;20493;-85
2023/11/28 02:41:05;;;;;;;2.58;1.35;;;0.90;99.90;;;;;;4928312;29;20051;-85
2023/11/28 02:43:32;;;;;;;9.50;2.13;;;1.00;99.90;;;;;;4918608;29;20113;-85
2023/11/28 02:45:59;;;;;;;3.30;1.50;;;1.00;99.90;;;;;;4915549;29;20506;-85
2023/11/28 02:48:25;;;;;;;3.85;1.75;;;1.00;99.90;;;;;;4948309;29;20044;-86
2023/11/28 02:50:52;;;;;;;4.07;1.60;;;1.60;99.90;;;;;;4934423;29;20615;-85
2023/11/28 02:53:19;;;;;;;4.70;1.77;;;1.00;99.90;;;;;;4917064;29;20048;-85
2023/11/28 02:55:46;;;;;;;5.25;1.60;;;1.00;99.90;;;;;;4927433;29;20050;-85
2023/11/28 02:58:13;;;;;;;4.30;1.70;;;1.50;99.90;;;;;;4916714;29;20119;-85
2023/11/28 03:00:39;;;;;;;3.40;1.73;;;1.00;99.90;;;;;;4927706;29;20040;-85
2023/11/28 03:03:06;;;;;;;5.45;1.50;;;1.00;99.90;;;;;;4909503;29;20494;-85
2023/11/28 03:05:33;;;;;;;4.45;2.05;;;1.00;99.90;;;;;;4931255;29;20048;-85
2023/11/28 03:07:59;;;;;;;3.83;1.80;;;1.10;99.90;;;;;;4919304;29;20040;-85
2023/11/28 03:10:26;;;;;;;5.10;1.95;;;1.10;99.90;;;;;;4923728;29;20861;-85
2023/11/28 03:12:52;;;;;;;4.18;1.70;;;1.20;99.90;;;;;;4915709;29;20075;-85
2023/11/28 03:15:19;;;;;;;3.33;1.48;;;1.20;99.90;;;;;;4917915;29;20040;-85
2023/11/28 03:17:46;;;;;;;4.80;1.83;;;2.20;99.90;;;;;;4930891;29;20096;-86
2023/11/28 03:20:12;;;;;;;7.05;2.00;;;1.30;99.90;;;;;;4915308;29;20052;-85
2023/11/28 03:22:40;;;;;;;5.53;2.00;;;1.30;99.90;;;;;;4930492;29;20045;-85
2023/11/28 03:25:08;;;;;;;5.63;1.83;;;1.40;99.90;;;;;;4930883;29;20490;-85
2023/11/28 03:27:36;;;;;;;5.97;1.77;;;1.40;99.90;;;;;;4917214;29;20036;-86
2023/11/28 03:30:04;;;;;;;4.18;1.83;;;1.90;99.90;;;;;;4915621;29;20038;-86
2023/11/28 03:32:30;;;;;;;7.75;2.00;;;1.40;99.90;;;;;;4915287;29;20127;-86
2023/11/28 03:34:57;;;;;;;7.85;1.80;;;1.50;99.90;;;;;;4915127;29;20124;-85
2023/11/28 03:37:25;;;;;;;4.95;2.00;;;1.50;99.90;;;;;;4927433;29;20183;-86
2023/11/28 03:39:51;;;;;;;3.55;1.88;;;2.00;99.90;;;;;;4915331;29;20127;-86
2023/11/28 03:42:18;;;;;;;4.03;1.92;;;1.50;99.90;;;;;;4918169;29;20160;-86
2023/11/28 03:44:45;;;;;;;5.30;1.77;;;1.50;99.90;;;;;;4928262;29;20083;-86
2023/11/28 03:47:12;;;;;;;5.00;2.05;;;1.50;99.90;;;;;;4933826;29;20123;-86
2023/11/28 03:49:39;;;;;;;5.35;1.80;;;2.30;99.90;;;;;;4937254;29;20073;-86
2023/11/28 03:52:05;;;;;;;4.00;2.00;;;2.10;99.90;;;;;;4923055;29;20041;-86
2023/11/28 03:54:32;;;;;;;5.22;2.25;;;1.60;99.90;;;;;;4915176;29;20166;-85
2023/11/28 03:56:58;;;;;;;4.47;2.40;;;1.60;99.90;;;;;;4939884;29;20039;-85
2023/11/28 03:59:25;;;;;;;3.70;2.10;;;1.50;99.90;;;;;;4939077;29;20040;-85
2023/11/28 04:01:52;;;;;;;5.22;2.22;;;1.60;99.90;;;;;;4918908;29;20048;-86
2023/11/28 04:04:19;;;;;;;4.82;2.55;;;1.50;99.90;;;;;;4918481;29;20069;-86
2023/11/28 04:06:46;;;;;;;5.38;2.10;;;1.50;99.90;;;;;;4918939;29;20494;-86
2023/11/28 04:09:13;;;;;;;6.97;2.05;;;1.50;99.90;;;;;;4920140;29;20036;-86
2023/11/28 04:11:40;;;;;;;5.63;1.92;;;1.50;99.90;;;;;;4929509;29;20047;-86
2023/11/28 04:14:07;;;;;;;3.63;1.70;;;1.50;99.90;;;;;;4908185;29;20033;-86
2023/11/28 04:16:34;;;;;;;3.88;1.90;;;1.50;99.90;;;;;;4918682;29;20067;-86
2023/11/28 04:19:00;;;;;;;4.07;2.00;;;1.50;99.90;;;;;;4918514;29;20501;-86
2023/11/28 04:21:27;;;;;;;3.50;1.50;;;1.90;99.90;;;;;;4937622;29;20044;-86
2023/11/28 04:23:53;;;;;;;6.60;1.80;;;2.50;99.90;;;;;;4939823;29;20040;-86
2023/11/28 04:26:20;;;;;;;4.35;1.80;;;2.60;99.90;;;;;;4918427;29;20532;-86
2023/11/28 04:28:47;;;;;;;4.07;1.67;;;1.50;99.90;;;;;;4930933;29;20131;-85
2023/11/28 04:31:21;;;;;;;5.60;1.92;;;1.50;99.90;;;;;;4918221;29;20047;-86
2023/11/28 04:33:48;;;;;;;7.25;1.88;;;1.50;99.90;;;;;;4946163;29;20056;-86
2023/11/28 04:36:15;;;;;;;6.38;1.92;;;1.50;99.90;;;;;;4924394;29;20036;-86
2023/11/28 04:38:43;;;;;;;5.45;1.92;;;1.50;99.90;;;;;;4933741;29;20045;-86
2023/11/28 04:41:13;;;;;;;8.57;2.15;;;1.50;99.90;;;;;;4918116;29;20049;-86
2023/11/28 04:43:40;;;;;;;7.05;2.40;;;2.30;99.90;;;;;;4930551;29;20087;-86
2023/11/28 04:46:07;;;;;;;7.03;2.28;;;1.50;99.90;;;;;;4912032;29;20041;-86
2023/11/28 04:48:34;;;;;;;5.95;2.50;;;1.50;99.90;;;;;;4945883;29;20076;-85
2023/11/28 04:51:00;;;;;;;9.43;2.88;;;1.50;99.90;;;;;;4918402;29;20076;-86
2023/11/28 04:53:27;;;;;;;6.30;2.72;;;1.50;99.90;;;;;;4923831;29;20412;-86
2023/11/28 04:55:54;;;;;;;4.93;2.63;;;1.50;99.90;;;;;;4917005;29;20052;-86
2023/11/28 04:58:20;;;;;;;6.45;2.90;;;1.50;99.90;;;;;;4917471;29;20044;-86
2023/11/28 05:00:48;;;;;;;6.85;2.60;;;1.50;99.90;;;;;;4945944;29;20052;-85
2023/11/28 05:03:14;;;;;;;5.18;2.80;;;1.40;99.90;;;;;;4932842;29;20068;-86
2023/11/28 05:05:41;;;;;;;6.93;3.15;;;2.00;99.90;;;;;;4933233;29;20490;-86
2023/11/28 05:08:07;;;;;;;5.45;2.60;;;1.50;99.90;;;;;;4929539;29;20037;-86
2023/11/28 05:10:34;;;;;;;6.97;2.65;;;1.40;99.90;;;;;;4929553;29;20036;-86
2023/11/28 05:13:03;;;;;;;6.20;2.95;;;2.00;99.90;;;;;;4931042;29;20040;-86
2023/11/28 05:15:29;;;;;;;6.13;2.40;;;1.40;99.90;;;;;;4919836;29;20052;-86
2023/11/28 05:17:56;;;;;;;4.80;2.38;;;2.50;99.90;;;;;;4932007;29;20041;-86
2023/11/28 05:20:22;;;;;;;6.80;2.72;;;1.40;99.90;;;;;;4936196;29;20048;-86
2023/11/28 05:22:49;;;;;;;7.65;2.40;;;1.50;99.90;;;;;;4926618;29;20062;-85
2023/11/28 05:25:16;;;;;;;7.47;2.75;;;1.50;99.90;;;;;;4929053;29;20401;-85
2023/11/28 05:27:42;;;;;;;6.63;2.67;;;2.40;99.90;;;;;;4933291;29;20045;-86
2023/11/28 05:30:09;;;;;;;7.07;2.80;;;2.50;99.90;;;;;;4920847;29;20158;-86
2023/11/28 05:32:36;;;;;;;8.38;2.65;;;1.50;99.90;;;;;;4923507;29;20082;-86
2023/11/28 05:35:03;;;;;;;5.53;2.63;;;1.50;99.90;;;;;;4942543;29;20087;-86
2023/11/28 05:37:30;;;;;;;5.07;2.67;;;1.50;99.90;;;;;;4920435;29;20049;-86
2023/11/28 05:39:59;;;;;;;5.43;2.42;;;1.50;99.90;;;;;;4932603;29;20041;-86
2023/11/28 05:42:26;;;;;;;4.25;2.25;;;1.50;99.90;;;;;;4932581;29;20049;-86
2023/11/28 05:44:53;;;;;;;5.57;2.10;;;1.50;99.90;;;;;;4952095;29;20128;-86
2023/11/28 05:47:20;;;;;;;6.13;2.17;;;1.50;99.90;;;;;;4921803;29;20036;-86
2023/11/28 05:49:46;;;;;;;7.18;2.75;;;2.10;99.90;;;;;;4940171;29;20853;-86
2023/11/28 05:52:13;;;;;;;11.27;2.42;;;1.50;99.90;;;;;;4917069;29;20124;-86
2023/11/28 05:54:39;;;;;;;7.72;2.22;;;2.00;99.90;;;;;;4941284;29;20602;-86
2023/11/28 05:57:06;;;;;;;4.72;2.58;;;1.50;99.90;;;;;;4916916;29;20128;-86
2023/11/28 05:59:33;;;;;;;6.10;2.63;;;1.50;99.90;;;;;;4935338;29;20507;-87
2023/11/28 06:02:03;;;;;;;8.07;2.75;;;1.50;99.90;;;;;;4935315;29;20048;-86
2023/11/28 06:04:31;;;;;;;6.32;2.10;;;2.00;99.90;;;;;;4919136;29;20498;-86
2023/11/28 06:06:58;;;;;;;7.15;2.40;;;1.50;99.90;;;;;;4916930;29;20040;-86
2023/11/28 06:09:25;;;;;;;5.57;2.58;;;2.60;99.90;;;;;;4917171;29;20040;-86
2023/11/28 06:11:52;;;;;;;5.35;2.35;;;1.50;99.90;;;;;;4917369;29;20131;-86
2023/11/28 06:14:19;;;;;;;6.07;2.30;;;2.20;99.90;;;;;;4918241;29;20056;-86
2023/11/28 06:16:46;;;;;;;6.03;2.50;;;1.50;99.90;;;;;;4935803;29;20043;-86
2023/11/28 06:19:14;;;;;;;7.43;2.80;;;1.50;99.90;;;;;;4921262;29;20048;-86
2023/11/28 06:21:41;;;;;;;7.03;2.58;;;1.60;99.90;;;;;;4917015;29;20386;-87
2023/11/28 06:24:08;;;;;;;4.90;2.55;;;1.50;99.90;;;;;;4917160;29;20044;-86
2023/11/28 06:26:35;;;;;;;5.35;2.47;;;1.50;99.90;;;;;;4916877;29;20517;-86
2023/11/28 06:29:02;;;;;;;6.80;2.40;;;1.50;99.90;;;;;;4916825;29;20040;-86
2023/11/28 06:31:28;;;;;;;9.85;2.45;;;1.50;99.90;;;;;;4931716;29;20509;-87
2023/11/28 06:33:55;;;;;;;7.53;2.42;;;1.50;99.90;;;;;;4928841;29;20048;-86
2023/11/28 06:36:22;;;;;;;7.20;2.60;;;1.50;99.90;;;;;;4941797;29;20035;-86
2023/11/28 06:38:48;;;;;;;4.90;2.28;;;1.90;99.90;;;;;;4931003;29;20513;-86
2023/11/28 06:41:15;;;;;;;6.95;2.67;;;1.70;99.90;;;;;;4915853;29;20517;-87
2023/11/28 06:43:42;;;;;;;6.15;2.78;;;1.70;99.90;;;;;;4920672;29;20046;-86
2023/11/28 06:46:10;;;;;;;7.72;2.85;;;1.50;99.90;;;;;;4934869;29;20051;-87
2023/11/28 06:48:37;;;;;;;8.57;3.03;;;1.50;99.90;;;;;;4917262;29;20040;-87
2023/11/28 06:51:04;;;;;;;6.28;2.60;;;1.90;99.90;;;;;;4916318;29;20493;-86
2023/11/28 06:53:31;;;;;;;6.38;2.67;;;1.50;99.90;;;;;;4949965;29;20123;-86
2023/11/28 06:55:57;;;;;;;6.50;2.45;;;2.20;99.90;;;;;;4932236;29;20044;-86
2023/11/28 06:58:24;;;;;;;7.13;2.72;;;1.50;99.90;;;;;;4927839;29;20131;-86
2023/11/28 07:00:51;;;;;;;5.53;2.67;;;1.50;99.90;;;;;;4915761;29;20048;-86
2023/11/28 07:03:17;;;;;;;10.05;2.65;;;1.50;99.90;;;;;;4938035;29;20056;-86
2023/11/28 07:05:44;;;;;;;6.18;2.40;;;2.60;99.90;;;;;;4912702;29;20487;-86
2023/11/28 07:08:11;;;;;;;6.70;2.50;;;1.50;99.90;;;;;;4916055;29;20044;-86
2023/11/28 07:10:37;;;;;;;6.95;2.88;;;1.40;99.90;;;;;;4934427;29;20068;-86
2023/11/28 07:13:04;;;;;;;11.77;2.78;;;1.50;99.90;;;;;;4922238;29;20059;-86
2023/11/28 07:15:31;;;;;;;4.25;2.35;;;1.50;99.90;;;;;;4921753;29;20565;-86
2023/11/28 07:18:00;;;;;;;6.78;2.85;;;1.40;99.90;;;;;;4920224;29;20127;-86
2023/11/28 07:20:28;;;;;;;10.23;2.83;;;1.40;99.90;;;;;;4934533;29;20083;-87
2023/11/28 07:22:55;;;;;;;8.43;2.50;;;1.40;99.90;;;;;;4916168;29;20044;-86
2023/11/28 07:25:23;;;;;;;4.97;2.33;;;1.40;99.90;;;;;;4928105;29;20127;-86
2023/11/28 07:27:49;;;;;;;6.68;2.67;;;2.50;99.90;;;;;;4915120;29;20401;-86
2023/11/28 07:30:16;;;;;;;6.38;2.83;;;2.50;99.90;;;;;;4915498;29;20040;-86
2023/11/28 07:32:43;;;;;;;5.53;2.50;;;1.40;99.90;;;;;;4915667;29;20056;-86
2023/11/28 07:35:09;;;;;;;5.22;2.70;;;1.40;99.90;;;;;;4915334;29;20048;-87
2023/11/28 07:37:36;;;;;;;7.10;2.67;;;1.40;99.90;;;;;;4932115;29;20040;-86
2023/11/28 07:40:04;;;;;;;5.35;2.65;;;1.40;99.90;;;;;;4915470;29;20136;-85
2023/11/28 07:42:30;;;;;;;6.43;3.13;;;1.30;99.90;;;;;;4914910;29;20071;-86
2023/11/28 07:44:57;;;;;;;5.22;2.35;;;1.40;99.90;;;;;;4921661;29;20041;-86
2023/11/28 07:47:24;;;;;;;4.10;2.40;;;1.40;99.90;;;;;;4926271;29;20048;-86
2023/11/28 07:49:51;;;;;;;6.25;2.60;;;1.40;99.90;;;;;;4915363;29;20042;-85
2023/11/28 07:52:18;;;;;;;8.45;2.80;;;1.40;99.90;;;;;;4914879;29;20542;-84
2023/11/28 07:54:44;;;;;;;5.95;2.25;;;1.30;99.90;;;;;;4914465;29;20124;-85
2023/11/28 07:57:11;;;;;;;5.13;3.13;;;1.30;99.90;;;;;;4919058;29;20044;-85
2023/11/28 07:59:38;;;;;;;7.45;2.50;;;1.30;99.90;;;;;;4914983;29;20040;-85
2023/11/28 08:02:05;;;;;;;4.95;2.53;;;1.30;99.90;;;;;;4936850;29;20100;-85
2023/11/28 08:04:32;;;;;;;3.80;2.05;;;2.00;99.90;;;;;;4930226;29;20055;-85
2023/11/28 08:06:58;;;;;;;5.70;2.50;;;1.30;99.90;;;;;;4914819;29;20123;-85
2023/11/28 08:09:25;;;;;;;4.55;2.17;;;1.30;99.90;;;;;;4914636;29;20120;-85
2023/11/28 08:11:51;;;;;;;4.30;2.13;;;1.30;99.90;;;;;;4933542;29;20047;-85
2023/11/28 08:14:18;;;;;;;5.47;2.42;;;1.90;99.90;;;;;;4916694;29;20487;-85
2023/11/28 08:16:45;;;;;;;3.47;1.58;;;1.30;99.90;;;;;;4914552;29;20044;-85
2023/11/28 08:19:11;;;;;;;6.30;1.73;;;1.30;99.90;;;;;;4929036;29;20047;-85
2023/11/28 08:21:38;;;;;;;5.45;2.08;;;1.20;99.90;;;;;;4940717;29;20045;-85
2023/11/28 08:24:05;;;;;;;4.97;2.05;;;1.20;99.90;;;;;;4914390;29;20045;-85
2023/11/28 08:26:32;;;;;;;5.90;1.92;;;1.20;99.90;;;;;;4914369;29;20045;-85
2023/11/28 08:28:58;;;;;;;4.85;2.00;;;1.20;99.90;;;;;;4917841;29;20412;-85
2023/11/28 08:31:25;;;;;;;5.10;1.90;;;1.20;99.90;;;;;;4924040;29;20040;-85
2023/11/28 08:33:52;;;;;;;3.65;1.85;;;1.20;99.90;;;;;;4906529;29;20061;-84
2023/11/28 08:36:18;;;;;;;5.07;1.75;;;1.20;99.90;;;;;;4926101;29;20047;-85
2023/11/28 08:38:45;;;;;;;6.68;2.72;;;1.20;99.90;;;;;;4921499;29;20066;-85
2023/11/28 08:41:11;;;;;;;6.00;2.17;;;1.20;99.90;;;;;;4917399;29;20104;-84
2023/11/28 08:43:38;;;;;;;6.60;2.05;;;1.20;99.90;;;;;;4912153;29;20043;-85
2023/11/28 08:46:05;;;;;;;4.85;2.00;;;1.20;99.90;;;;;;4930845;29;20092;-85
2023/11/28 08:48:32;;;;;;;3.97;1.70;;;1.20;99.90;;;;;;4917814;29;20036;-85
2023/11/28 08:50:59;;;;;;;3.60;1.85;;;1.10;99.90;;;;;;4929434;29;20091;-85
2023/11/28 08:53:25;;;;;;;5.47;1.88;;;1.10;99.90;;;;;;4917901;29;20053;-85
2023/11/28 08:55:52;;;;;;;7.07;2.20;;;1.00;99.90;;;;;;4928046;29;20409;-85
2023/11/28 08:58:19;;;;;;;4.15;2.00;;;1.00;99.90;;;;;;4917606;29;20066;-85
2023/11/28 09:00:45;;;;;;;5.05;1.90;;;1.00;99.90;;;;;;4930556;29;20366;-85
2023/11/28 09:03:12;;;;;;;6.25;2.20;;;1.50;99.90;;;;;;4933967;29;20057;-85
2023/11/28 09:05:38;;;;;;;9.60;2.15;;;1.00;99.90;;;;;;4917757;29;20442;-85
2023/11/28 09:08:05;;;;;;;4.53;1.90;;;1.00;99.90;;;;;;4915051;29;20044;-85
2023/11/28 09:10:32;;;;;;;2.90;1.58;;;1.00;99.90;;;;;;4925118;29;20051;-85
2023/11/28 09:12:58;;;;;;;3.65;1.67;;;1.00;99.90;;;;;;4921901;29;20490;-85
2023/11/28 09:15:25;;;;;;;4.03;1.80;;;1.00;99.90;;;;;;4922646;29;20051;-85
2023/11/28 09:17:52;;;;;;;5.05;2.03;;;1.10;99.90;;;;;;4929654;29;20045;-85
2023/11/28 09:20:19;;;;;;;6.72;2.20;;;1.10;99.90;;;;;;4932657;29;20061;-85
2023/11/28 09:22:47;;;;;;;5.47;2.20;;;1.20;99.90;;;;;;4932675;29;20490;-85
2023/11/28 09:25:15;;;;;;;3.90;1.88;;;1.20;99.90;;;;;;4917284;29;20032;-85
2023/11/28 09:27:41;;;;;;;4.45;1.80;;;1.20;99.90;;;;;;4917572;29;20052;-85
2023/11/28 09:30:08;;;;;;;4.28;1.80;;;1.20;99.90;;;;;;4913418;29;20033;-85
2023/11/28 09:32:35;;;;;;;4.43;1.95;;;1.20;99.90;;;;;;4940088;29;20119;-86
2023/11/28 09:35:02;;;;;;;4.13;1.67;;;1.20;99.90;;;;;;4925770;29;20049;-85
2023/11/28 09:37:29;;;;;;;6.28;2.00;;;1.20;99.90;;;;;;4917156;29;20068;-86
2023/11/28 09:39:55;;;;;;;3.10;1.30;;;1.20;99.90;;;;;;4942191;29;20517;-85
2023/11/28 09:42:25;;;;;;;2.95;1.48;;;1.20;99.90;;;;;;4925875;29;20124;-85
2023/11/28 09:44:52;;;;;;;3.08;1.60;;;1.70;99.90;;;;;;4916932;29;20041;-86
2023/11/28 09:47:22;;;;;;;3.33;1.63;;;1.30;99.90;;;;;;4941547;29;20063;-85
2023/11/28 09:49:54;;;;;;;3.42;1.55;;;1.30;99.90;;;;;;4927409;29;20036;-85
2023/11/28 09:52:21;;;;;;;3.72;1.60;;;1.40;99.90;;;;;;4935113;29;20048;-85
2023/11/28 09:54:52;;;;;;;7.80;1.85;;;1.40;99.90;;;;;;4931668;29;21319;-86
2023/11/28 09:57:20;;;;;;;5.50;1.60;;;1.40;99.90;;;;;;4942291;29;20084;-85
2023/11/28 09:59:49;;;;;;;4.15;1.70;;;1.40;99.90;;;;;;4914707;29;20045;-85
2023/11/28 10:02:16;;;;;;;4.60;1.60;;;1.40;99.90;;;;;;4928166;29;20056;-85
2023/11/28 10:04:42;;;;;;;4.57;1.88;;;1.50;99.90;;;;;;4919870;29;20048;-85
2023/11/28 10:07:11;;;;;;;5.38;1.60;;;1.50;99.90;;;;;;4925038;29;20033;-85
2023/11/28 10:09:40;;;;;;;4.72;1.50;;;1.50;99.90;;;;;;4908919;29;20064;-85
2023/11/28 10:12:09;;;;;;;4.50;1.70;;;1.60;99.90;;;;;;4916026;29;20044;-85
2023/11/28 10:14:39;;;;;;;4.97;1.80;;;1.50;99.90;;;;;;4928635;29;20047;-85
2023/11/28 10:17:09;;;;;;;3.05;1.58;;;1.50;99.90;;;;;;4916232;29;20041;-85
2023/11/28 10:19:35;;;;;;;6.10;1.98;;;2.30;99.90;;;;;;4931977;29;20068;-85
2023/11/28 10:22:06;;;;;;;3.20;1.42;;;1.50;99.90;;;;;;4920336;29;20072;-84
2023/11/28 10:24:33;;;;;;;2.75;1.33;;;1.50;99.90;;;;;;4929800;29;20163;-84
2023/11/28 10:27:01;;;;;;;4.20;1.35;;;1.50;99.90;;;;;;4919942;29;20045;-84
2023/11/28 10:29:28;;;;;;;5.25;1.75;;;1.60;99.90;;;;;;4931530;29;20127;-84
2023/11/28 10:31:55;;;;;;;3.78;1.60;;;1.50;99.90;;;;;;4931658;29;20041;-83
2023/11/28 10:34:22;;;;;;;3.30;1.60;;;1.60;99.90;;;;;;4916521;29;20040;-83
2023/11/28 10:36:49;;;;;;;5.85;1.90;;;2.30;99.90;;;;;;4932677;29;20036;-85
2023/11/28 10:39:19;;;;;;;2.70;1.40;;;1.60;99.90;;;;;;4937881;29;20497;-84
2023/11/28 10:41:45;;;;;;;4.70;2.13;;;2.80;99.90;;;;;;4931262;29;20076;-85
2023/11/28 10:44:12;;;;;;;3.42;1.80;;;2.80;99.90;;;;;;4926602;29;20076;-86
2023/11/28 10:46:40;;;;;;;3.70;1.80;;;1.70;99.90;;;;;;4926084;29;20055;-85
2023/11/28 10:49:07;;;;;;;4.85;1.67;;;1.70;99.90;;;;;;4927064;29;20045;-85
2023/11/28 10:51:35;;;;;;;3.15;1.60;;;1.60;99.90;;;;;;4917194;29;20041;-84
2023/11/28 10:54:07;;;;;;;3.45;1.60;;;2.70;99.90;;;;;;4925767;29;20052;-83
2023/11/28 10:56:49;;;;;;;4.80;2.22;;;1.50;99.90;;;;;;4915276;29;20561;-83
2023/11/28 10:59:34;;;;;;;4.97;1.70;;;1.50;99.90;;;;;;4915303;29;20117;-84
2023/11/28 11:02:03;;;;;;;4.50;1.52;;;1.50;99.90;;;;;;4929440;29;20044;-85
2023/11/28 11:04:30;;;;;;;4.45;1.67;;;2.10;99.90;;;;;;4932761;29;20052;-84
2023/11/28 11:06:57;;;;;;;6.18;1.63;;;1.60;99.90;;;;;;4917539;29;20044;-85
2023/11/28 11:09:25;;;;;;;4.28;1.60;;;1.60;99.90;;;;;;4918949;29;20414;-83
2023/11/28 11:11:53;;;;;;;4.05;1.80;;;1.60;99.90;;;;;;4912281;29;20036;-84
2023/11/28 11:14:47;;;;;;;3.40;1.77;;;1.60;99.90;;;;;;4915245;29;20091;-85
2023/11/28 11:17:43;;;;;;;3.80;1.85;;;1.70;99.90;;;;;;4915147;29;20081;-85
2023/11/28 11:20:12;;;;;;;5.40;1.45;;;1.70;99.90;;;;;;4930041;29;20100;-85
2023/11/28 11:22:47;;;;;;;5.07;1.88;;;1.80;99.90;;;;;;4917808;29;20455;-85
2023/11/28 11:25:14;;;;;;;3.73;1.83;;;2.80;99.90;;;;;;4929466;29;20063;-85
2023/11/28 11:27:40;;;;;;;4.70;1.60;;;1.80;99.90;;;;;;4929943;29;20498;-85
2023/11/28 11:30:09;;;;;;;3.53;1.63;;;1.80;99.90;;;;;;4913694;29;20060;-85
2023/11/28 11:32:36;;;;;;;3.38;1.65;;;1.90;99.90;;;;;;4913682;29;20048;-85
2023/11/28 11:35:08;;;;;;;3.53;1.60;;;1.90;99.90;;;;;;4946010;29;20390;-84
2023/11/28 11:37:36;;;;;;;2.75;1.40;;;1.90;99.90;;;;;;4925355;29;20059;-85
2023/11/28 11:40:07;;;;;;;3.70;1.80;;;1.90;99.90;;;;;;4926495;29;20048;-85
2023/11/28 11:42:34;;;;;;;4.10;1.65;;;1.90;99.90;;;;;;4914715;29;20081;-85
2023/11/28 11:45:06;;;;;;;5.60;1.70;;;2.20;99.90;;;;;;4923521;29;20138;-85
2023/11/28 11:47:36;;;;;;;2.88;1.55;;;2.00;99.90;;;;;;4917315;29;20116;-86
2023/11/28 11:50:06;;;;;;;4.13;1.60;;;1.90;99.90;;;;;;4913750;29;20111;-85
2023/11/28 11:52:33;;;;;;;3.85;1.65;;;1.90;99.90;;;;;;4910103;29;20044;-85
2023/11/28 11:55:14;;;;;;;4.18;1.63;;;2.40;99.90;;;;;;4914586;29;20040;-85
2023/11/28 11:57:45;;;;;;;5.07;1.70;;;1.90;99.90;;;;;;4930088;29;20052;-85
2023/11/28 12:00:13;;;;;;;3.65;1.70;;;1.80;99.90;;;;;;4917645;29;20123;-85
2023/11/28 12:02:44;;;;;;;5.20;1.90;;;1.80;99.90;;;;;;4939726;29;20107;-85
2023/11/28 12:05:12;;;;;;;4.78;1.85;;;2.10;99.90;;;;;;4914555;29;20837;-85
2023/11/28 12:07:42;;;;;;;4.88;1.90;;;1.70;99.90;;;;;;4929685;29;20044;-85
2023/11/28 12:10:11;;;;;;;5.13;2.55;;;1.60;99.90;;;;;;4921954;29;20036;-85
2023/11/28 12:12:39;;;;;;;3.75;1.50;;;1.60;99.90;;;;;;4933329;29;20084;-85
2023/11/28 12:15:06;;;;;;;2.88;1.70;;;1.60;99.90;;;;;;4914490;29;20096;-85
2023/11/28 12:17:35;;;;;;;3.70;1.83;;;1.60;99.90;;;;;;4913155;29;20435;-85
2023/11/28 12:20:04;;;;;;;3.80;1.65;;;1.60;99.90;;;;;;4918402;29;20044;-86
2023/11/28 12:22:33;;;;;;;3.63;1.75;;;1.60;99.90;;;;;;4930309;29;20053;-85
2023/11/28 12:25:01;;;;;;;3.03;1.42;;;1.60;99.90;;;;;;4933392;29;20047;-85
2023/11/28 12:27:29;;;;;;;4.50;1.85;;;1.80;99.90;;;;;;4933868;29;20049;-86
2023/11/28 12:29:56;;;;;;;5.43;1.70;;;1.70;99.90;;;;;;4918074;29;20178;-85
2023/11/28 12:32:23;;;;;;;7.40;2.00;;;1.70;99.90;;;;;;4930305;29;20123;-85
2023/11/28 12:34:50;;;;;;;3.38;1.58;;;1.70;99.90;;;;;;4918183;29;20047;-85
2023/11/28 12:37:20;;;;;;;3.85;1.70;;;1.70;99.90;;;;;;4930205;29;20564;-86
2023/11/28 12:39:47;;;;;;;4.15;1.58;;;2.20;99.90;;;;;;4924748;29;20039;-86
2023/11/28 12:42:14;;;;;;;3.25;1.30;;;1.70;99.90;;;;;;4918617;29;20206;-86
2023/11/28 12:44:41;;;;;;;7.85;1.90;;;1.70;99.90;;;;;;4933748;29;20044;-85
2023/11/28 12:47:10;;;;;;;3.45;1.60;;;1.70;99.90;;;;;;4916997;29;20047;-85
2023/11/28 12:49:40;;;;;;;3.00;1.60;;;1.70;99.90;;;;;;4925839;29;20035;-86
2023/11/28 12:52:08;;;;;;;2.55;1.40;;;2.30;99.90;;;;;;4913740;29;20041;-85
2023/11/28 12:54:35;;;;;;;2.58;1.38;;;1.60;99.90;;;;;;4923878;29;20053;-86
2023/11/28 12:57:02;;;;;;;4.45;1.75;;;1.60;99.90;;;;;;4936757;29;20036;-85
2023/11/28 12:59:29;;;;;;;3.63;1.70;;;1.60;99.90;;;;;;4926965;29;20051;-86